createdAt,value
2023-10-06T00:02:21.379Z,101603.29
2023-10-06T00:04:48.587Z,101600.98
2023-10-06T00:07:15.903Z,101599.74
2023-10-06T00:09:45.403Z,101602.59
2023-10-06T00:12:14.073Z,101600.80
2023-10-06T00:14:41.544Z,101598.15
2023-10-06T00:17:22.613Z,101597.80
2023-10-06T00:20:00.425Z,101596.39
2023-10-06T00:22:27.339Z,101597.63
2023-10-06T00:24:59.745Z,101603.30
2023-10-06T00:27:30.270Z,101600.83
2023-10-06T00:29:57.098Z,101598.87
2023-10-06T00:32:28.527Z,101603.52
2023-10-06T00:35:15.569Z,101605.28
2023-10-06T00:37:43.970Z,101604.92
2023-10-06T00:40:20.028Z,101604.04
2023-10-06T00:42:57.303Z,101597.45
2023-10-06T00:45:26.827Z,101599.40
2023-10-06T00:47:54.251Z,101602.94
2023-10-06T00:50:25.311Z,101596.73
2023-10-06T00:52:52.843Z,101596.02
2023-10-06T00:55:20.834Z,101596.55
2023-10-06T00:57:54.064Z,101597.97
2023-10-06T01:00:21.387Z,101598.15
2023-10-06T01:02:50.581Z,101608.45
2023-10-06T01:05:22.282Z,101621.92
2023-10-06T01:07:50.321Z,101630.79
2023-10-06T01:10:19.219Z,101631.33
2023-10-06T01:12:51.367Z,101632.95
2023-10-06T01:15:20.262Z,101635.05
2023-10-06T01:17:48.220Z,101644.80
2023-10-06T01:20:34.431Z,101645.52
2023-10-06T01:23:03.768Z,101645.91
2023-10-06T01:25:35.602Z,101642.37
2023-10-06T01:28:05.700Z,101644.85
2023-10-06T01:30:32.427Z,101631.56
2023-10-06T01:32:59.220Z,101625.17
2023-10-06T01:35:27.358Z,101620.76
2023-10-06T01:38:01.247Z,101621.84
2023-10-06T01:40:28.835Z,101634.96
2023-10-06T01:42:56.584Z,101640.30
2023-10-06T01:45:23.434Z,101628.95
2023-10-06T01:48:14.964Z,101633.58
2023-10-06T01:50:42.119Z,101633.24
2023-10-06T01:53:10.899Z,101640.69
2023-10-06T01:55:39.102Z,101637.69
2023-10-06T01:58:08.286Z,101636.99
2023-10-06T02:00:36.745Z,101635.59
2023-10-06T02:03:26.781Z,101637.89
2023-10-06T02:05:56.348Z,101638.58
2023-10-06T02:08:24.309Z,101636.99
2023-10-06T02:10:51.872Z,101633.25
2023-10-06T02:13:24.644Z,101636.08
2023-10-06T02:15:59.382Z,101635.34
2023-10-06T02:18:36.947Z,101629.67
2023-10-06T02:21:15.152Z,101627.20
2023-10-06T02:23:42.861Z,101627.56
2023-10-06T02:26:12.940Z,101634.63
2023-10-06T02:28:44.176Z,101639.98
2023-10-06T02:31:12.453Z,101637.83
2023-10-06T02:33:40.649Z,101637.67
2023-10-06T02:36:22.119Z,101637.13
2023-10-06T02:38:50.799Z,101644.23
2023-10-06T02:41:24.201Z,101643.52
2023-10-06T02:43:52.045Z,101641.95
2023-10-06T02:46:26.356Z,101641.61
2023-10-06T02:48:53.414Z,101640.23
2023-10-06T02:51:30.259Z,101645.02
2023-10-06T02:54:09.973Z,101647.69
2023-10-06T02:56:39.174Z,101650.53
2023-10-06T02:59:22.162Z,101647.52
2023-10-06T03:02:16.700Z,101642.05
2023-10-06T03:04:55.405Z,101646.49
2023-10-06T03:07:23.050Z,101643.67
2023-10-06T03:09:49.786Z,101651.63
2023-10-06T03:12:27.213Z,101654.86
2023-10-06T03:14:55.581Z,101658.39
2023-10-06T03:17:23.386Z,101661.77
2023-10-06T03:20:11.409Z,101664.44
2023-10-06T03:22:39.513Z,101659.84
2023-10-06T03:25:16.124Z,101662.14
2023-10-06T03:27:43.534Z,101673.16
2023-10-06T03:30:19.352Z,101673.16
2023-10-06T03:32:50.012Z,101673.17
2023-10-06T03:35:24.414Z,101675.99
2023-10-06T03:37:52.942Z,101674.92
2023-10-06T03:40:36.814Z,101676.33
2023-10-06T03:43:05.549Z,101675.80
2023-10-06T03:45:33.167Z,101676.14
2023-10-06T03:48:13.635Z,101677.18
2023-10-06T03:50:44.753Z,101676.82
2023-10-06T03:53:13.986Z,101679.14
2023-10-06T03:55:43.574Z,101677.55
2023-10-06T03:58:11.725Z,101678.77
2023-10-06T04:00:40.629Z,101680.73
2023-10-06T04:03:14.721Z,101676.13
2023-10-06T04:05:45.004Z,101676.13
2023-10-06T04:08:16.814Z,101673.13
2023-10-06T04:10:45.385Z,101675.95
2023-10-06T04:13:12.920Z,101672.95
2023-10-06T04:15:44.330Z,101675.97
2023-10-06T04:18:11.516Z,101676.68
2023-10-06T04:20:41.948Z,101677.03
2023-10-06T04:23:08.717Z,101673.14
2023-10-06T04:25:38.619Z,101673.70
2023-10-06T04:28:11.754Z,101671.76
2023-10-06T04:30:39.522Z,101674.97
2023-10-06T04:33:06.381Z,101677.48
2023-10-06T04:35:35.883Z,101681.73
2023-10-06T04:38:06.609Z,101678.54
2023-10-06T04:40:33.380Z,101677.31
2023-10-06T04:43:00.364Z,101683.69
2023-10-06T04:45:28.256Z,101681.04
2023-10-06T04:47:56.448Z,101688.84
2023-10-06T04:50:23.563Z,101694.00
2023-10-06T04:52:50.324Z,101700.36
2023-10-06T04:55:17.382Z,101701.78
2023-10-06T04:57:44.158Z,101702.67
2023-10-06T05:00:15.711Z,101701.77
2023-10-06T05:02:47.265Z,101704.27
2023-10-06T05:05:17.007Z,101708.52
2023-10-06T05:07:46.436Z,101713.65
2023-10-06T05:10:13.585Z,101720.38
2023-10-06T05:12:43.113Z,101724.05
2023-10-06T05:15:15.094Z,101730.05
2023-10-06T05:17:42.170Z,101732.70
2023-10-06T05:20:19.976Z,101739.04
2023-10-06T05:22:49.704Z,101741.30
2023-10-06T05:25:20.375Z,101746.68
2023-10-06T05:27:47.967Z,101751.22
2023-10-06T05:30:15.565Z,101750.95
2023-10-06T05:32:43.091Z,101754.77
2023-10-06T05:35:14.374Z,101759.81
2023-10-06T05:37:43.505Z,101757.55
2023-10-06T05:40:16.613Z,101758.97
2023-10-06T05:42:44.244Z,101762.56
2023-10-06T05:45:18.902Z,101766.10
2023-10-06T05:47:47.275Z,101769.09
2023-10-06T05:50:19.366Z,101775.06
2023-10-06T05:52:52.494Z,101778.60
2023-10-06T05:55:20.310Z,101783.33
2023-10-06T05:57:56.413Z,101783.66
2023-10-06T06:00:27.721Z,101785.45
2023-10-06T06:02:58.847Z,101794.90
2023-10-06T06:05:31.356Z,101794.57
2023-10-06T06:07:59.916Z,101799.71
2023-10-06T06:10:29.751Z,101801.67
2023-10-06T06:12:57.529Z,101806.29
2023-10-06T06:15:27.014Z,101811.29
2023-10-06T06:17:54.589Z,101810.39
2023-10-06T06:20:24.812Z,101816.30
2023-10-06T06:22:56.003Z,101822.52
2023-10-06T06:25:29.075Z,101823.77
2023-10-06T06:27:59.784Z,101824.14
2023-10-06T06:30:27.360Z,101826.80
2023-10-06T06:32:55.337Z,101830.94
2023-10-06T06:35:23.901Z,101833.59
2023-10-06T06:38:00.409Z,101834.11
2023-10-06T06:40:29.437Z,101832.33
2023-10-06T06:42:56.980Z,101835.69
2023-10-06T06:45:29.367Z,101836.36
2023-10-06T06:47:56.593Z,101840.03
2023-10-06T06:50:23.636Z,101841.94
2023-10-06T06:52:55.671Z,101845.27
2023-10-06T06:55:23.930Z,101849.15
2023-10-06T06:57:56.753Z,101849.10
2023-10-06T07:00:24.228Z,101854.58
2023-10-06T07:02:56.758Z,101849.45
2023-10-06T07:05:23.994Z,101849.95
2023-10-06T07:07:51.919Z,101852.58
2023-10-06T07:10:21.649Z,101854.67
2023-10-06T07:12:49.222Z,101854.13
2023-10-06T07:15:17.265Z,101854.80
2023-10-06T07:17:54.734Z,101856.19
2023-10-06T07:20:30.642Z,101859.55
2023-10-06T07:23:01.087Z,101863.25
2023-10-06T07:25:29.106Z,101865.71
2023-10-06T07:27:58.774Z,101868.52
2023-10-06T07:30:28.284Z,101865.66
2023-10-06T07:32:56.019Z,101863.14
2023-10-06T07:35:31.693Z,101865.97
2023-10-06T07:37:59.016Z,101863.30
2023-10-06T07:40:28.190Z,101866.84
2023-10-06T07:42:59.401Z,101864.70
2023-10-06T07:45:27.415Z,101864.65
2023-10-06T07:47:55.438Z,101861.06
2023-10-06T07:50:30.663Z,101865.98
2023-10-06T07:52:57.952Z,101864.52
2023-10-06T07:55:24.762Z,101866.02
2023-10-06T07:57:51.706Z,101868.30
2023-10-06T08:00:30.655Z,101870.18
2023-10-06T08:03:00.070Z,101875.12
2023-10-06T08:05:30.615Z,101871.14
2023-10-06T08:08:00.053Z,101870.55
2023-10-06T08:10:30.605Z,101870.66
2023-10-06T08:13:01.338Z,101870.75
2023-10-06T08:15:28.914Z,101864.13
2023-10-06T08:17:56.657Z,101861.40
2023-10-06T08:20:31.286Z,101863.84
2023-10-06T08:22:58.995Z,101865.77
2023-10-06T08:25:26.354Z,101868.04
2023-10-06T08:27:54.090Z,101873.51
2023-10-06T08:35:14.074Z,101877.05
2023-10-06T08:37:57.124Z,101876.15
2023-10-06T08:40:24.841Z,101878.98
2023-10-06T08:43:00.621Z,101875.98
2023-10-06T08:45:29.083Z,101874.20
2023-10-06T08:48:03.963Z,101875.07
2023-10-06T08:50:33.633Z,101878.05
2023-10-06T08:53:02.369Z,101875.39
2023-10-06T08:55:29.702Z,101878.94
2023-10-06T08:58:00.294Z,101878.21
2023-10-06T09:00:32.920Z,101881.02
2023-10-06T09:03:10.183Z,101876.88
2023-10-06T09:05:41.220Z,101873.64
2023-10-06T09:08:15.338Z,101873.02
2023-10-06T09:10:49.488Z,101877.19
2023-10-06T09:13:18.468Z,101876.38
2023-10-06T09:16:00.242Z,101875.43
2023-10-06T09:18:32.669Z,101879.27
2023-10-06T09:21:20.654Z,101881.91
2023-10-06T09:23:49.768Z,101881.04
2023-10-06T09:26:30.264Z,101886.02
2023-10-06T09:28:59.994Z,101887.08
2023-10-06T09:31:44.874Z,101890.27
2023-10-06T09:34:12.450Z,101883.52
2023-10-06T09:36:45.388Z,101885.47
2023-10-06T09:39:25.600Z,101886.86
2023-10-06T09:41:54.746Z,101881.33
2023-10-06T09:44:23.569Z,101880.58
2023-10-06T09:46:53.960Z,101886.39
2023-10-06T09:49:22.190Z,101884.90
2023-10-06T09:51:51.838Z,101884.30
2023-10-06T09:54:20.965Z,101881.40
2023-10-06T09:56:48.276Z,101879.20
2023-10-06T09:59:16.495Z,101876.64
2023-10-06T10:01:43.832Z,101875.31
2023-10-06T10:04:12.265Z,101873.86
2023-10-06T10:06:44.406Z,101873.98
2023-10-06T10:09:17.737Z,101865.62
2023-10-06T10:11:53.657Z,101869.17
2023-10-06T10:14:49.961Z,101865.61
2023-10-06T10:17:49.031Z,101868.63
2023-10-06T10:20:17.661Z,101863.87
2023-10-06T10:22:44.569Z,101864.80
2023-10-06T10:25:24.861Z,101860.19
2023-10-06T10:28:14.380Z,101860.89
2023-10-06T10:30:58.076Z,101862.09
2023-10-06T10:33:33.941Z,101860.84
2023-10-06T10:36:20.303Z,101855.33
2023-10-06T10:39:14.768Z,101853.73
2023-10-06T10:41:41.559Z,101854.43
2023-10-06T10:44:24.891Z,101855.64
2023-10-06T10:46:53.854Z,101851.89
2023-10-06T10:49:23.499Z,101853.64
2023-10-06T10:52:07.654Z,101854.52
2023-10-06T10:54:39.785Z,101858.04
2023-10-06T10:57:14.648Z,101852.33
2023-10-06T11:00:12.279Z,101847.52
2023-10-06T11:03:01.913Z,101847.64
2023-10-06T11:05:29.325Z,101850.06
2023-10-06T11:08:04.005Z,101844.14
2023-10-06T11:10:34.109Z,101846.21
2023-10-06T11:13:19.159Z,101844.37
2023-10-06T11:15:47.011Z,101844.52
2023-10-06T11:18:13.893Z,101842.55
2023-10-06T11:20:40.981Z,101839.70
2023-10-06T11:23:07.780Z,101844.13
2023-10-06T11:25:39.540Z,101839.65
2023-10-06T11:28:10.584Z,101832.90
2023-10-06T11:30:43.318Z,101832.18
2023-10-06T11:33:12.434Z,101833.56
2023-10-06T11:35:41.163Z,101834.94
2023-10-06T11:38:12.856Z,101840.55
2023-10-06T11:40:41.021Z,101843.53
2023-10-06T11:43:16.145Z,101839.63
2023-10-06T11:45:43.207Z,101840.67
2023-10-06T11:48:30.654Z,101836.61
2023-10-06T11:51:07.308Z,101837.30
2023-10-06T11:53:35.883Z,101841.05
2023-10-06T11:56:11.539Z,101840.77
2023-10-06T11:58:41.271Z,101843.67
2023-10-06T12:01:33.793Z,101840.71
2023-10-06T12:04:05.324Z,101838.99
2023-10-06T12:06:40.187Z,101837.60
2023-10-06T12:09:14.575Z,101837.64
2023-10-06T12:11:42.186Z,101832.70
2023-10-06T12:14:11.207Z,101836.98
2023-10-06T12:16:38.395Z,101842.47
2023-10-06T12:19:06.485Z,101840.33
2023-10-06T12:21:33.623Z,101838.20
2023-10-06T12:24:00.345Z,101843.33
2023-10-06T12:26:27.087Z,101844.73
2023-10-06T12:28:54.807Z,101845.98
2023-10-06T12:31:22.558Z,101841.04
2023-10-06T12:33:55.705Z,101841.73
2023-10-06T12:36:22.541Z,101841.39
2023-10-06T12:38:49.295Z,101839.80
2023-10-06T12:41:18.356Z,101842.08
2023-10-06T12:43:48.043Z,101842.77
2023-10-06T12:46:14.855Z,101845.59
2023-10-06T12:48:41.596Z,101843.98
2023-10-06T12:51:12.801Z,101843.24
2023-10-06T12:53:41.218Z,101840.54
2023-10-06T12:56:08.076Z,101839.83
2023-10-06T12:58:34.949Z,101840.70
2023-10-06T13:01:01.777Z,101836.23
2023-10-06T13:03:30.009Z,101839.92
2023-10-06T13:05:57.133Z,101838.80
2023-10-06T13:08:25.436Z,101837.21
2023-10-06T13:10:54.372Z,101836.48
2023-10-06T13:13:21.237Z,101835.20
2023-10-06T13:15:48.076Z,101829.84
2023-10-06T13:18:17.779Z,101833.02
2023-10-06T13:20:44.559Z,101830.16
2023-10-06T13:23:11.364Z,101828.78
2023-10-06T13:25:38.294Z,101825.07
2023-10-06T13:28:11.149Z,101824.90
2023-10-06T13:30:39.024Z,101820.17
2023-10-06T13:33:05.884Z,101818.08
2023-10-06T13:35:32.814Z,101811.76
2023-10-06T13:37:59.543Z,101807.35
2023-10-06T13:40:26.318Z,101810.77
2023-10-06T13:42:53.566Z,101814.90
2023-10-06T13:45:26.039Z,101818.16
2023-10-06T13:47:54.501Z,101816.80
2023-10-06T13:50:28.100Z,101821.28
2023-10-06T13:52:55.557Z,101825.05
2023-10-06T13:55:24.977Z,101826.67
2023-10-06T13:57:53.321Z,101832.56
2023-10-06T14:00:41.106Z,101835.26
2023-10-06T14:03:14.320Z,101834.59
2023-10-06T14:05:43.954Z,101838.53
2023-10-06T14:08:14.280Z,101839.48
2023-10-06T14:10:41.966Z,101845.01
2023-10-06T14:13:12.114Z,101848.76
2023-10-06T14:16:04.941Z,101849.86
2023-10-06T14:18:33.326Z,101852.73
2023-10-06T14:21:06.495Z,101855.25
2023-10-06T14:23:34.913Z,101858.30
2023-10-06T14:26:06.148Z,101863.30
2023-10-06T14:28:33.815Z,101861.38
2023-10-06T14:31:18.998Z,101865.49
2023-10-06T14:33:48.372Z,101866.39
2023-10-06T14:36:15.050Z,101868.54
2023-10-06T14:38:44.673Z,101872.29
2023-10-06T14:41:35.082Z,101869.99
2023-10-06T14:44:21.543Z,101871.98
2023-10-06T14:46:51.158Z,101870.42
2023-10-06T14:49:26.456Z,101869.73
2023-10-06T14:51:56.770Z,101872.43
2023-10-06T14:54:34.104Z,101872.30
2023-10-06T14:57:03.874Z,101876.42
2023-10-06T14:59:34.399Z,101877.83
2023-10-06T15:02:10.293Z,101879.09
2023-10-06T15:04:39.798Z,101884.41
2023-10-06T15:07:06.910Z,101886.23
2023-10-06T15:09:36.059Z,101886.06
2023-10-06T15:12:04.117Z,101887.34
2023-10-06T15:14:31.407Z,101890.20
2023-10-06T15:17:00.172Z,101890.05
2023-10-06T15:19:26.997Z,101895.91
2023-10-06T15:21:55.439Z,101897.00
2023-10-06T15:24:22.511Z,101897.91
2023-10-06T15:26:50.674Z,101897.77
2023-10-06T15:29:21.549Z,101898.52
2023-10-06T15:31:50.325Z,101904.59
2023-10-06T15:34:18.158Z,101903.21
2023-10-06T15:36:45.422Z,101907.16
2023-10-06T15:39:18.555Z,101905.61
2023-10-06T15:41:49.773Z,101906.88
2023-10-06T15:44:18.314Z,101911.33
2023-10-06T15:46:46.441Z,101915.81
2023-10-06T15:49:16.397Z,101915.83
2023-10-06T15:51:47.450Z,101917.13
2023-10-06T15:54:14.165Z,101918.89
2023-10-06T15:56:41.110Z,101923.00
2023-10-06T15:59:15.014Z,101925.88
2023-10-06T16:01:43.681Z,101930.17
2023-10-06T16:04:13.010Z,101933.90
2023-10-06T16:06:42.246Z,101936.04
2023-10-06T16:09:10.162Z,101937.29
2023-10-06T16:11:40.688Z,101938.02
2023-10-06T16:14:07.651Z,101938.20
2023-10-06T16:16:35.452Z,101940.19
2023-10-06T16:19:03.881Z,101940.54
2023-10-06T16:21:32.608Z,101943.04
2023-10-06T16:23:59.965Z,101943.39
2023-10-06T16:26:30.514Z,101942.36
2023-10-06T16:28:58.781Z,101947.71
2023-10-06T16:31:26.854Z,101943.84
2023-10-06T16:33:57.808Z,101950.27
2023-10-06T16:36:24.849Z,101952.41
2023-10-06T16:38:52.267Z,101957.03
2023-10-06T16:41:22.066Z,101959.55
2023-10-06T16:43:54.015Z,101960.84
2023-10-06T16:46:21.032Z,101959.23
2023-10-06T16:48:48.328Z,101965.83
2023-10-06T16:51:15.146Z,101968.48
2023-10-06T16:53:41.981Z,101969.77
2023-10-06T16:56:09.049Z,101973.16
2023-10-06T16:58:35.890Z,101978.30
2023-10-06T17:01:08.346Z,101981.16
2023-10-06T17:03:35.207Z,101978.36
2023-10-06T17:06:04.551Z,101979.44
2023-10-06T17:08:31.763Z,101984.64
2023-10-06T17:11:11.590Z,101991.73
2023-10-06T17:13:38.638Z,101996.00
2023-10-06T17:16:09.745Z,101997.09
2023-10-06T17:18:37.139Z,101996.74
2023-10-06T17:21:07.446Z,101997.50
2023-10-06T17:23:34.684Z,101998.56
2023-10-06T17:26:02.392Z,102002.80
2023-10-06T17:28:29.231Z,102003.53
2023-10-06T17:30:56.161Z,102002.45
2023-10-06T17:33:22.942Z,102003.34
2023-10-06T17:35:49.759Z,102002.79
2023-10-06T17:38:19.043Z,102009.52
2023-10-06T17:40:46.610Z,102008.99
2023-10-06T17:43:15.254Z,102007.79
2023-10-06T17:45:42.272Z,102008.48
2023-10-06T17:48:09.129Z,102008.49
2023-10-06T17:50:36.067Z,102012.56
2023-10-06T17:53:02.869Z,102016.13
2023-10-06T17:55:32.182Z,102021.45
2023-10-06T17:57:59.668Z,102019.69
2023-10-06T18:00:28.104Z,102020.57
2023-10-06T18:02:55.069Z,102024.16
2023-10-06T18:05:23.422Z,102027.16
2023-10-06T18:07:51.608Z,102025.95
2023-10-06T18:10:18.983Z,102029.33
2023-10-06T18:12:45.694Z,102031.99
2023-10-06T18:15:12.472Z,102034.16
2023-10-06T18:17:39.446Z,102041.44
2023-10-06T18:20:09.210Z,102044.48
2023-10-06T18:22:37.635Z,102047.86
2023-10-06T18:25:06.528Z,102052.30
2023-10-06T18:27:33.591Z,102052.14
2023-10-06T18:30:00.347Z,102055.00
2023-10-06T18:32:27.131Z,102052.01
2023-10-06T18:34:53.951Z,102054.14
2023-10-06T18:37:21.205Z,102057.17
2023-10-06T18:39:50.492Z,102058.80
2023-10-06T18:42:17.244Z,102058.80
2023-10-06T18:44:43.946Z,102062.54
2023-10-06T18:47:10.907Z,102060.62
2023-10-06T18:49:37.738Z,102062.56
2023-10-06T18:52:04.604Z,102062.75
2023-10-06T18:54:31.486Z,102062.94
2023-10-06T18:56:58.199Z,102064.54
2023-10-06T18:59:24.943Z,102066.13
2023-10-06T19:01:52.219Z,102065.95
2023-10-06T19:04:19.112Z,102067.91
2023-10-06T19:06:45.877Z,102068.09
2023-10-06T19:09:15.580Z,102071.45
2023-10-06T19:11:42.404Z,102069.87
2023-10-06T19:14:10.871Z,102069.52
2023-10-06T19:16:37.763Z,102072.35
2023-10-06T19:19:04.735Z,102073.59
2023-10-06T19:21:32.033Z,102077.32
2023-10-06T19:24:02.082Z,102084.42
2023-10-06T19:26:28.828Z,102083.02
2023-10-06T19:28:55.882Z,102083.21
2023-10-06T19:31:22.862Z,102082.52
2023-10-06T19:33:51.262Z,102085.19
2023-10-06T19:36:20.248Z,102091.23
2023-10-06T19:38:48.381Z,102091.09
2023-10-06T19:41:15.444Z,102089.86
2023-10-06T19:43:43.100Z,102088.98
2023-10-06T19:46:11.613Z,102086.33
2023-10-06T19:48:39.842Z,102087.23
2023-10-06T19:51:07.235Z,102084.95
2023-10-06T19:53:35.199Z,102088.33
2023-10-06T19:56:03.732Z,102093.13
2023-10-06T19:58:31.367Z,102096.52
2023-10-06T20:01:01.917Z,102098.82
2023-10-06T20:03:28.756Z,102100.98
2023-10-06T20:05:56.591Z,102104.55
2023-10-06T20:08:23.469Z,102105.27
2023-10-06T20:10:54.836Z,102103.34
2023-10-06T20:13:24.501Z,102096.98
2023-10-06T20:15:52.480Z,102096.81
2023-10-06T20:18:20.269Z,102095.93
2023-10-06T20:20:47.111Z,102101.42
2023-10-06T20:23:13.937Z,102098.25
2023-10-06T20:25:41.631Z,102100.05
2023-10-06T20:28:09.833Z,102100.06
2023-10-06T20:30:36.945Z,102099.01
2023-10-06T20:33:03.975Z,102097.41
2023-10-06T20:35:31.538Z,102099.73
2023-10-06T20:37:59.052Z,102102.55
2023-10-06T20:40:26.212Z,102108.05
2023-10-06T20:42:57.462Z,102111.58
2023-10-06T20:45:29.297Z,102105.02
2023-10-06T20:47:56.836Z,102106.09
2023-10-06T20:50:25.391Z,102104.67
2023-10-06T20:52:53.748Z,102111.06
2023-10-06T20:55:21.750Z,102116.73
2023-10-06T20:57:49.116Z,102113.73
2023-10-06T21:00:22.823Z,102115.16
2023-10-06T21:02:50.806Z,102117.30
2023-10-06T21:05:18.134Z,102121.73
2023-10-06T21:07:45.536Z,102119.95
2023-10-06T21:10:14.029Z,102116.45
2023-10-06T21:12:43.802Z,102115.04
2023-10-06T21:15:13.858Z,102112.39
2023-10-06T21:17:44.229Z,102112.05
2023-10-06T21:20:12.850Z,102113.64
2023-10-06T21:22:40.349Z,102114.19
2023-10-06T21:25:09.713Z,102112.98
2023-10-06T21:27:40.457Z,102115.11
2023-10-06T21:30:08.642Z,102112.45
2023-10-06T21:32:36.832Z,102106.27
2023-10-06T21:35:06.335Z,102109.12
2023-10-06T21:37:34.022Z,102106.48
2023-10-06T21:40:01.754Z,102108.27
2023-10-06T21:42:28.998Z,102109.55
2023-10-06T21:44:56.373Z,102108.68
2023-10-06T21:47:23.730Z,102110.98
2023-10-06T21:49:50.739Z,102109.92
2023-10-06T21:52:17.630Z,102103.22
2023-10-06T21:54:44.906Z,102104.30
2023-10-06T21:57:14.633Z,102102.02
2023-10-06T21:59:41.799Z,102109.47
2023-10-06T22:02:08.850Z,102105.39
2023-10-06T22:04:36.282Z,102099.55
2023-10-06T22:07:03.676Z,102097.95
2023-10-06T22:09:30.526Z,102098.13
2023-10-06T22:11:59.184Z,102100.61
2023-10-06T22:14:27.905Z,102099.02
2023-10-06T22:16:55.872Z,102098.85
2023-10-06T22:19:22.757Z,102098.13
2023-10-06T22:21:51.293Z,102100.80
2023-10-06T22:24:17.973Z,102098.67
2023-10-06T22:26:45.588Z,102100.30
2023-10-06T22:29:12.526Z,102101.52
2023-10-06T22:31:39.695Z,102109.88
2023-10-06T22:34:06.625Z,102112.02
2023-10-06T22:36:33.375Z,102110.95
2023-10-06T22:39:00.368Z,102113.28
2023-10-06T22:41:28.118Z,102109.39
2023-10-06T22:43:54.865Z,102108.88
2023-10-06T22:46:21.763Z,102106.40
2023-10-06T22:48:48.727Z,102108.73
2023-10-06T22:51:18.630Z,102105.53
2023-10-06T22:53:45.386Z,102107.86
2023-10-06T22:56:12.853Z,102106.83
2023-10-06T22:58:39.679Z,102110.73
2023-10-06T23:01:07.076Z,102107.20
2023-10-06T23:03:33.978Z,102105.44
2023-10-06T23:06:02.432Z,102106.16
2023-10-06T23:08:29.168Z,102103.88
2023-10-06T23:10:56.206Z,102099.46
2023-10-06T23:13:23.232Z,102095.59
2023-10-06T23:15:50.166Z,102094.70
2023-10-06T23:18:18.389Z,102088.52
2023-10-06T23:20:47.190Z,102086.04
2023-10-06T23:23:14.110Z,102083.21
2023-10-06T23:25:47.019Z,102084.30
2023-10-06T23:28:13.852Z,102077.73
2023-10-06T23:30:40.609Z,102075.44
2023-10-06T23:33:07.907Z,102072.42
2023-10-06T23:35:34.841Z,102071.89
2023-10-06T23:38:06.960Z,102065.52
2023-10-06T23:40:38.851Z,102063.02
2023-10-06T23:43:09.128Z,102062.50
2023-10-06T23:45:38.723Z,102062.50
2023-10-06T23:48:12.845Z,102058.61
2023-10-06T23:50:52.946Z,102058.78
2023-10-06T23:53:29.339Z,102054.89
2023-10-06T23:56:00.477Z,102050.10
2023-10-06T23:58:31.155Z,102046.39
